Time;durP1;ratioP1;P1;durP2;ratioP2;P2;SDS_P1;SDS_P2;PMS_P1;PMS_P2;Temp;Humidity;BMP_temperature;BMP_pressure;BME280_temperature;BME280_humidity;BME280_pressure;Samples;Min_cycle;Max_cycle;Signal;HPM_P1;HPM_P2
2023/11/25 00:01:14;;;;;;;;;8.33;8.33;;;;;7.71;100.00;96647.34;6170624;28;98656;-65
2023/11/25 00:04:19;;;;;;;;;9.75;9.00;;;;;7.67;100.00;96648.88;6195793;28;96883;-65
2023/11/25 00:07:22;;;;;;;;;7.50;6.50;;;;;7.66;100.00;96649.16;6191346;28;96356;-65
2023/11/25 00:10:26;;;;;;;;;9.00;9.00;;;;;7.72;100.00;96646.25;6194046;28;97399;-66
2023/11/25 00:13:29;;;;;;;;;9.00;8.00;;;;;7.67;100.00;96646.22;6185700;28;96557;-65
2023/11/25 00:16:33;;;;;;;;;10.00;9.00;;;;;7.72;100.00;96654.28;6188080;28;96868;-65
2023/11/25 00:19:36;;;;;;;;;12.00;12.00;;;;;7.63;100.00;96652.34;6181524;28;96405;-66
2023/11/25 00:22:43;;;;;;;;;7.00;7.00;;;;;7.73;100.00;96660.47;6192350;28;96302;-61
2023/11/25 00:25:47;;;;;;;;;8.20;8.00;;;;;7.78;100.00;96655.13;6219388;28;96345;-67
2023/11/25 00:28:51;;;;;;;;;9.00;8.40;;;;;7.65;100.00;96658.28;6215764;28;96334;-67
2023/11/25 00:31:55;;;;;;;;;9.80;9.00;;;;;7.67;100.00;96648.09;6220481;28;96798;-67
2023/11/25 00:35:00;;;;;;;;;9.00;8.00;;;;;7.76;100.00;96641.19;6186675;28;97010;-66
2023/11/25 00:38:08;;;;;;;;;8.00;7.00;;;;;7.79;100.00;96641.47;6183923;28;96787;-66
2023/11/25 00:41:12;;;;;;;;;6.40;5.40;;;;;7.83;100.00;96639.88;6160747;28;97978;-66
2023/11/25 00:44:15;;;;;;;;;7.20;7.00;;;;;7.88;100.00;96638.31;6199987;28;96593;-65
2023/11/25 00:47:19;;;;;;;;;5.00;5.00;;;;;7.86;100.00;96638.59;6160590;28;98861;-66
2023/11/25 00:50:24;;;;;;;;;8.00;7.40;;;;;7.82;100.00;96638.25;6184968;28;98597;-67
2023/11/25 00:53:28;;;;;;;;;7.40;7.40;;;;;7.87;100.00;96632.13;6183535;28;96679;-65
2023/11/25 00:56:33;;;;;;;;;6.40;6.40;;;;;7.83;100.00;96631.84;6194089;28;97453;-65
2023/11/25 00:59:36;;;;;;;;;8.00;7.00;;;;;7.71;100.00;96612.47;6203307;28;96620;-66
2023/11/25 01:02:39;;;;;;;;;7.00;6.60;;;;;7.75;100.00;96628.84;6191271;28;96407;-65
2023/11/25 01:05:43;;;;;;;;;7.75;7.00;;;;;7.68;100.00;96625.56;6201146;28;97605;-65
2023/11/25 01:08:46;;;;;;;;;5.00;4.80;;;;;7.68;100.00;96621.00;6176468;28;97674;-66
2023/11/25 01:11:50;;;;;;;;;7.00;6.80;;;;;7.67;100.00;96614.03;6199362;28;98388;-66
2023/11/25 01:14:54;;;;;;;;;7.00;6.00;;;;;7.63;100.00;96618.28;6210796;28;97010;-66
2023/11/25 01:17:57;;;;;;;;;9.33;8.33;;;;;7.64;100.00;96619.09;6169315;28;98637;-66
2023/11/25 01:21:00;;;;;;;;;11.00;10.60;;;;;7.54;100.00;96619.84;6172756;28;96702;-66
2023/11/25 01:24:05;;;;;;;;;9.00;7.80;;;;;7.54;100.00;96627.06;6162881;28;99162;-66
2023/11/25 01:27:09;;;;;;;;;8.00;8.00;;;;;7.48;100.00;96626.22;6214843;28;97166;-66
2023/11/25 01:30:13;;;;;;;;;8.00;7.00;;;;;7.43;100.00;96618.16;6183555;28;97563;-65
2023/11/25 01:33:16;;;;;;;;;8.50;6.50;;;;;7.31;100.00;96623.69;6175989;28;96625;-65
2023/11/25 01:36:19;;;;;;;;;5.25;5.25;;;;;7.22;100.00;96611.03;6187557;28;96504;-66
2023/11/25 01:39:24;;;;;;;;;8.20;6.40;;;;;7.29;100.00;96616.97;6214782;28;97585;-66
2023/11/25 01:42:29;;;;;;;;;6.80;6.00;;;;;7.24;100.00;96601.66;6197687;28;96505;-66
2023/11/25 01:45:38;;;;;;;;;7.00;6.40;;;;;7.14;100.00;96588.19;6206358;28;96339;-60
2023/11/25 01:48:42;;;;;;;;;7.00;7.00;;;;;6.64;100.00;96559.09;6201455;28;97000;-60
2023/11/25 01:51:47;;;;;;;;;7.60;6.00;;;;;6.54;100.00;96484.06;6200937;28;96887;-60
2023/11/25 01:54:51;;;;;;;;;10.40;8.40;;;;;6.77;100.00;96547.16;6219246;28;96562;-61
2023/11/25 01:57:56;;;;;;;;;7.00;6.60;;;;;6.49;100.00;96467.94;6230748;28;96632;-61
2023/11/25 02:01:02;;;;;;;;;7.25;7.25;;;;;6.65;100.00;96484.94;6234520;28;96382;-61
2023/11/25 02:04:05;;;;;;;;;9.00;8.20;;;;;6.78;100.00;96501.41;6196965;28;96754;-61
2023/11/25 02:07:11;;;;;;;;;8.60;8.00;;;;;6.63;100.00;96474.50;6198637;28;96271;-60
2023/11/25 02:10:16;;;;;;;;;9.00;8.00;;;;;6.72;100.00;96481.00;6208788;28;96428;-61
2023/11/25 02:13:22;;;;;;;;;9.75;9.00;;;;;6.68;100.00;96490.59;6207455;28;96388;-61
2023/11/25 02:16:32;;;;;;;;;9.00;9.00;;;;;7.20;100.00;96587.16;6217959;28;96389;-61
2023/11/25 02:19:36;;;;;;;;;9.50;8.50;;;;;6.76;100.00;96516.91;6181396;28;96440;-61
2023/11/25 02:22:40;;;;;;;;;6.20;6.20;;;;;7.17;100.00;96592.22;6189492;28;96254;-61
2023/11/25 02:25:47;;;;;;;;;10.40;10.00;;;;;6.05;100.00;96460.06;6204688;28;96345;-61
2023/11/25 02:28:51;;;;;;;;;8.00;8.00;;;;;6.42;100.00;96475.38;6199552;28;96783;-60
2023/11/25 02:31:54;;;;;;;;;8.40;8.00;;;;;7.10;100.00;96607.69;6214487;28;96366;-60
2023/11/25 02:34:58;;;;;;;;;8.00;8.00;;;;;7.15;100.00;96589.00;6191955;28;97642;-62
2023/11/25 02:38:01;;;;;;;;;6.20;6.20;;;;;6.55;100.00;96492.91;6212966;28;96716;-61
2023/11/25 02:41:08;;;;;;;;;9.00;9.00;;;;;7.11;100.00;96609.31;6238178;28;96708;-63
2023/11/25 02:44:12;;;;;;;;;6.00;6.00;;;;;6.34;100.00;96515.97;6222823;28;96731;-62
2023/11/25 02:47:15;;;;;;;;;9.00;8.20;;;;;6.53;100.00;96501.16;6202969;28;97146;-61
2023/11/25 02:50:19;;;;;;;;;8.60;8.00;;;;;6.55;100.00;96531.16;6236017;28;96160;-61
2023/11/25 02:53:23;;;;;;;;;8.50;8.50;;;;;7.06;100.00;96618.13;6159476;28;98228;-76
2023/11/25 02:56:28;;;;;;;;;7.00;7.00;;;;;7.08;100.00;96620.56;6192961;28;96545;-75
2023/11/25 02:59:31;;;;;;;;;10.00;8.33;;;;;7.05;100.00;96619.19;6198742;28;98516;-76
2023/11/25 03:02:34;;;;;;;;;9.40;9.40;;;;;7.10;100.00;96627.25;6186495;28;96345;-75
2023/11/25 03:05:42;;;;;;;;;7.60;7.60;;;;;7.11;100.00;96617.38;6181946;28;97010;-75
2023/11/25 03:08:45;;;;;;;;;9.60;8.20;;;;;7.19;100.00;96619.56;6180006;28;98744;-76
2023/11/25 03:11:49;;;;;;;;;7.00;7.00;;;;;7.25;100.00;96622.03;6195034;28;96536;-76
2023/11/25 03:14:52;;;;;;;;;7.00;7.00;;;;;7.26;100.00;96630.91;6211100;28;96687;-76
2023/11/25 03:17:56;;;;;;;;;7.00;7.00;;;;;7.32;100.00;96628.00;6185718;28;96369;-74
2023/11/25 03:20:59;;;;;;;;;4.20;4.20;;;;;7.39;100.00;96630.44;6174834;28;96899;-76
2023/11/25 03:24:03;;;;;;;;;7.00;6.00;;;;;7.39;100.00;96633.13;6188999;28;96835;-78
2023/11/25 03:27:08;;;;;;;;;7.00;7.00;;;;;7.48;100.00;96628.13;6187140;28;96289;-72
2023/11/25 03:30:13;;;;;;;;;7.00;7.00;;;;;7.48;100.00;96620.88;6215144;28;96931;-75
2023/11/25 03:33:16;;;;;;;;;7.00;7.00;;;;;7.55;100.00;96626.03;6194585;28;98402;-76
2023/11/25 03:36:19;;;;;;;;;9.40;8.00;;;;;7.55;100.00;96624.16;6196213;28;96704;-77
2023/11/25 03:39:22;;;;;;;;;7.00;6.40;;;;;7.61;100.00;96619.63;6175369;28;96718;-75
2023/11/25 03:42:27;;;;;;;;;5.20;5.20;;;;;7.59;100.00;96619.88;6178165;28;96255;-75
2023/11/25 03:45:30;;;;;;;;;7.00;5.40;;;;;7.70;100.00;96629.63;6193603;28;96728;-75
2023/11/25 03:48:34;;;;;;;;;5.20;5.20;;;;;7.64;100.00;96633.31;6217869;28;96241;-76
2023/11/25 03:51:38;;;;;;;;;5.00;5.00;;;;;7.66;100.00;96630.41;6211760;28;96276;-75
2023/11/25 03:54:41;;;;;;;;;5.00;5.00;;;;;7.67;100.00;96637.38;6176191;28;98332;-76
2023/11/25 03:57:45;;;;;;;;;6.00;6.00;;;;;7.64;100.00;96632.50;6203029;28;96320;-76
2023/11/25 04:00:49;;;;;;;;;4.00;4.00;;;;;7.55;100.00;96621.47;6192289;28;98461;-75
2023/11/25 04:03:52;;;;;;;;;6.20;5.20;;;;;7.75;100.00;96637.69;6183731;28;98873;-65
2023/11/25 04:06:55;;;;;;;;;7.25;7.00;;;;;7.71;100.00;96643.84;6184677;28;96953;-66
2023/11/25 04:10:01;;;;;;;;;8.60;8.00;;;;;7.75;100.00;96645.75;6191850;28;96504;-65
2023/11/25 04:13:09;;;;;;;;;6.60;6.60;;;;;7.80;100.00;96642.28;6213056;28;96361;-66
2023/11/25 04:16:13;;;;;;;;;8.40;8.00;;;;;7.80;100.00;96647.66;6189109;28;96235;-66
2023/11/25 04:19:16;;;;;;;;;8.60;8.40;;;;;7.86;100.00;96649.31;6201013;28;97651;-66
2023/11/25 04:22:19;;;;;;;;;9.00;9.00;;;;;7.88;100.00;96665.13;6177175;28;96866;-66
2023/11/25 04:25:22;;;;;;;;;7.00;7.00;;;;;7.85;100.00;96658.41;6191676;28;96531;-66
2023/11/25 04:28:27;;;;;;;;;8.00;7.33;;;;;7.90;100.00;96657.63;6192830;28;96398;-66
2023/11/25 04:31:31;;;;;;;;;7.80;7.80;;;;;7.85;100.00;96663.78;6192546;28;97897;-66
2023/11/25 04:34:34;;;;;;;;;8.00;7.50;;;;;7.83;100.00;96666.72;6212144;28;96522;-66
2023/11/25 04:37:38;;;;;;;;;9.60;9.40;;;;;7.92;100.00;96671.59;6170384;28;98824;-65
2023/11/25 04:40:41;;;;;;;;;9.40;9.40;;;;;7.89;100.00;96664.06;6200692;28;97022;-66
2023/11/25 04:43:46;;;;;;;;;8.80;8.00;;;;;7.90;100.00;96663.00;6182633;28;96694;-66
2023/11/25 04:46:49;;;;;;;;;8.00;7.40;;;;;8.02;100.00;96682.38;6193567;28;96534;-66
2023/11/25 04:49:52;;;;;;;;;5.75;5.75;;;;;8.00;100.00;96685.34;6185178;28;96542;-66
2023/11/25 04:52:56;;;;;;;;;4.80;4.80;;;;;7.95;100.00;96688.00;6185204;28;98279;-65
2023/11/25 04:56:00;;;;;;;;;7.00;6.00;;;;;8.03;100.00;96692.06;6209199;28;96338;-65
2023/11/25 04:59:06;;;;;;;;;8.80;8.80;;;;;7.96;100.00;96703.03;6190441;28;96390;-65
2023/11/25 05:02:11;;;;;;;;;8.60;8.40;;;;;7.87;100.00;96693.81;6193246;28;96825;-65
2023/11/25 05:05:14;;;;;;;;;7.00;7.00;;;;;7.77;100.00;96705.28;6199855;28;96847;-66
2023/11/25 05:08:17;;;;;;;;;7.40;7.40;;;;;7.67;100.00;96709.78;6205087;28;96609;-66
2023/11/25 05:11:20;;;;;;;;;6.60;6.00;;;;;7.60;100.00;96707.31;6224179;28;96412;-65
2023/11/25 05:14:51;;;;;;;;;5.00;4.60;;;;;7.49;100.00;96707.47;6178415;28;97136;-61
2023/11/25 05:17:54;;;;;;;;;4.40;4.40;;;;;7.20;100.00;96675.59;6213463;28;96333;-60
2023/11/25 05:20:58;;;;;;;;;4.20;4.20;;;;;6.82;100.00;96644.41;6219412;28;96447;-61
2023/11/25 05:24:02;;;;;;;;;8.00;6.60;;;;;6.52;100.00;96601.25;6219723;28;96512;-60
2023/11/25 05:27:06;;;;;;;;;5.80;5.80;;;;;7.31;100.00;96714.81;6218699;28;96325;-61
2023/11/25 05:30:13;;;;;;;;;6.60;6.40;;;;;7.28;100.00;96687.72;6207339;28;96968;-61
2023/11/25 05:33:17;;;;;;;;;8.00;7.00;;;;;7.03;100.00;96644.63;6245224;28;96502;-60
2023/11/25 05:36:23;;;;;;;;;5.40;5.40;;;;;6.90;100.00;96632.44;6223387;28;96387;-60
2023/11/25 05:39:28;;;;;;;;;8.00;8.00;;;;;7.00;100.00;96643.25;6220485;28;96654;-60
2023/11/25 05:42:32;;;;;;;;;7.60;7.00;;;;;7.00;100.00;96658.50;6213127;28;96393;-61
2023/11/25 05:45:40;;;;;;;;;7.00;6.00;;;;;6.85;100.00;96693.97;6204905;28;96585;-61
2023/11/25 05:48:43;;;;;;;;;9.00;9.00;;;;;6.86;100.00;96658.91;6198666;28;96798;-62
2023/11/25 05:51:47;;;;;;;;;7.50;7.50;;;;;7.28;100.00;96755.50;6194069;28;96872;-60
2023/11/25 05:54:50;;;;;;;;;8.00;7.50;;;;;7.43;100.00;96770.16;6192774;28;96352;-61
2023/11/25 05:57:54;;;;;;;;;8.00;8.00;;;;;6.84;100.00;96701.19;6194472;28;96554;-62
2023/11/25 06:01:02;;;;;;;;;8.00;8.00;;;;;6.83;100.00;96698.78;6195150;28;96388;-60
2023/11/25 06:04:06;;;;;;;;;7.00;7.00;;;;;7.01;100.00;96719.06;6204094;28;96696;-61
2023/11/25 06:07:09;;;;;;;;;5.25;5.25;;;;;6.81;100.00;96741.88;6193286;28;96559;-60
2023/11/25 06:10:18;;;;;;;;;4.00;4.00;;;;;6.78;100.00;96710.25;6193562;28;96278;-60
2023/11/25 06:13:22;;;;;;;;;5.00;4.50;;;;;6.74;100.00;96727.06;6206818;28;96881;-60
2023/11/25 06:16:29;;;;;;;;;6.60;6.60;;;;;6.93;100.00;96747.94;6214950;28;96334;-61
2023/11/25 06:19:32;;;;;;;;;6.00;6.00;;;;;6.76;100.00;96714.22;6233443;28;96566;-60
2023/11/25 06:22:35;;;;;;;;;6.20;6.00;;;;;6.53;100.00;96742.06;6217674;28;96441;-61
2023/11/25 06:25:40;;;;;;;;;5.80;5.00;;;;;7.57;100.00;96849.13;6205986;28;96652;-66
2023/11/25 06:28:44;;;;;;;;;6.00;6.00;;;;;7.65;100.00;96854.84;6195489;28;97178;-66
2023/11/25 06:31:49;;;;;;;;;6.50;6.50;;;;;7.70;100.00;96856.75;6199185;28;96443;-66
2023/11/25 06:34:53;;;;;;;;;7.00;7.00;;;;;7.73;100.00;96859.72;6207184;28;96528;-64
2023/11/25 06:37:56;;;;;;;;;7.00;6.00;;;;;7.80;100.00;96865.72;6180822;28;96534;-64
2023/11/25 06:41:00;;;;;;;;;5.50;5.00;;;;;7.75;100.00;96868.34;6200065;28;97527;-67
2023/11/25 06:44:04;;;;;;;;;3.00;3.00;;;;;7.70;100.00;96879.03;6197655;28;96571;-67
2023/11/25 06:47:10;;;;;;;;;7.00;7.00;;;;;7.70;100.00;96891.63;6188847;28;96547;-67
2023/11/25 06:50:14;;;;;;;;;4.00;4.00;;;;;7.73;100.00;96899.97;6200024;28;96254;-65
2023/11/25 06:53:17;;;;;;;;;5.00;5.00;;;;;7.83;100.00;96908.13;6194465;28;96553;-65
2023/11/25 06:56:22;;;;;;;;;5.00;5.00;;;;;7.92;100.00;96904.97;6193550;28;96413;-65
2023/11/25 06:59:26;;;;;;;;;4.00;4.00;;;;;8.04;100.00;96908.34;6205560;28;96421;-65
2023/11/25 07:02:33;;;;;;;;;5.00;5.00;;;;;8.04;100.00;96908.34;6207787;28;96895;-67
2023/11/25 07:05:37;;;;;;;;;2.75;2.00;;;;;8.17;100.00;96913.28;6203079;28;96613;-67
2023/11/25 07:08:42;;;;;;;;;4.00;3.40;;;;;8.19;100.00;96922.72;6205539;28;96374;-66
2023/11/25 07:11:48;;;;;;;;;5.00;5.00;;;;;8.17;100.00;96932.06;6198999;28;96500;-67
2023/11/25 07:14:51;;;;;;;;;4.00;3.00;;;;;8.14;100.00;96929.91;6200455;28;96334;-66
2023/11/25 07:17:56;;;;;;;;;4.00;4.00;;;;;8.13;100.00;96941.69;6181444;28;97012;-66
2023/11/25 07:20:59;;;;;;;;;6.00;6.00;;;;;8.14;100.00;96943.31;6180651;28;96673;-66
2023/11/25 07:24:03;;;;;;;;;5.00;5.00;;;;;8.13;100.00;96950.56;6181003;28;96669;-66
2023/11/25 07:27:07;;;;;;;;;5.00;5.00;;;;;8.08;100.00;96957.75;6199548;28;96391;-66
2023/11/25 07:30:11;;;;;;;;;7.00;7.00;;;;;8.13;100.00;96963.97;6188074;28;97470;-66
2023/11/25 07:33:23;;;;;;;;;4.75;4.00;;;;;8.04;100.00;96975.41;6188046;28;96324;-66
2023/11/25 07:36:26;;;;;;;;;5.40;5.40;;;;;7.99;100.00;96991.47;6162849;28;97337;-71
2023/11/25 07:39:31;;;;;;;;;4.60;4.40;;;;;7.92;100.00;96982.78;6171191;28;99933;-72
2023/11/25 07:42:34;;;;;;;;;5.00;5.00;;;;;7.88;100.00;96995.88;6185349;28;96777;-71
2023/11/25 07:45:38;;;;;;;;;3.80;3.20;;;;;7.77;100.00;96994.94;6182240;28;96973;-73
2023/11/25 07:48:43;;;;;;;;;3.00;3.00;;;;;7.65;100.00;96991.59;6191001;28;97230;-72
2023/11/25 07:51:48;;;;;;;;;3.25;2.25;;;;;7.61;100.00;96982.44;6195103;28;98967;-72
2023/11/25 07:54:51;;;;;;;;;3.00;2.00;;;;;7.65;100.00;97002.31;6185037;28;96829;-72
2023/11/25 07:57:54;;;;;;;;;5.00;4.25;;;;;7.78;100.00;96995.75;6207756;28;96238;-71
2023/11/25 08:00:58;;;;;;;;;4.50;4.50;;;;;7.82;100.00;97002.25;6187933;28;96908;-72
2023/11/25 08:04:03;;;;;;;;;4.00;4.00;;;;;7.92;100.00;97002.38;6199673;28;96398;-72
2023/11/25 08:07:06;;;;;;;;;5.00;4.40;;;;;8.15;100.00;97012.03;6205195;28;96387;-66
2023/11/25 08:10:10;;;;;;;;;2.00;1.00;;;;;8.34;100.00;97015.22;6208054;28;96557;-72
2023/11/25 08:13:14;;;;;;;;;3.00;3.00;;;;;8.53;100.00;97024.53;6188629;28;96764;-71
2023/11/25 08:16:19;;;;;;;;;4.00;4.00;;;;;8.71;100.00;97032.22;6177803;28;99017;-73
2023/11/25 08:19:24;;;;;;;;;6.60;6.60;;;;;8.62;100.00;97033.75;6188591;28;96637;-72
2023/11/25 08:22:27;;;;;;;;;6.20;6.20;;;;;8.51;100.00;97048.16;6198429;28;98406;-71
2023/11/25 08:25:30;;;;;;;;;5.00;4.40;;;;;8.43;100.00;97053.97;6172300;28;96673;-73
2023/11/25 08:28:33;;;;;;;;;4.40;4.40;;;;;8.46;100.00;97065.00;6175282;28;96942;-72
2023/11/25 08:31:37;;;;;;;;;5.50;5.50;;;;;8.58;100.00;97070.25;6192465;28;96295;-74
2023/11/25 08:34:41;;;;;;;;;4.60;4.40;;;;;8.74;100.00;97068.53;6172806;28;98245;-72
2023/11/25 08:37:47;;;;;;;;;4.60;4.60;;;;;8.80;100.00;97073.69;6166107;28;96825;-72
2023/11/25 08:40:52;;;;;;;;;2.00;2.00;;;;;8.85;100.00;97084.47;6189307;28;97014;-73
2023/11/25 08:43:58;;;;;;;;;4.00;4.00;;;;;8.90;100.00;97087.22;6191635;28;96662;-72
2023/11/25 08:47:02;;;;;;;;;2.00;2.00;;;;;8.92;100.00;97093.16;6189754;28;98057;-72
2023/11/25 08:50:10;;;;;;;;;2.00;2.00;;;;;9.04;100.00;97106.44;6191668;28;96763;-72
2023/11/25 08:53:14;;;;;;;;;4.00;4.00;;;;;8.91;100.00;97112.22;6178443;28;96723;-73
2023/11/25 08:56:17;;;;;;;;;5.00;5.00;;;;;9.08;100.00;97107.56;6188579;28;96261;-74
2023/11/25 08:59:21;;;;;;;;;4.00;4.00;;;;;9.14;100.00;97109.19;6212875;28;96679;-73
2023/11/25 09:02:25;;;;;;;;;4.25;4.00;;;;;9.23;100.00;97113.06;6188724;28;96616;-74
2023/11/25 09:05:31;;;;;;;;;5.00;5.00;;;;;9.29;100.00;97111.22;6197213;28;96269;-72
2023/11/25 09:08:35;;;;;;;;;3.25;3.25;;;;;9.34;100.00;97108.56;6191016;28;96292;-74
2023/11/25 09:11:38;;;;;;;;;5.00;5.00;;;;;9.38;100.00;97121.22;6199543;28;97547;-72
2023/11/25 09:14:42;;;;;;;;;6.00;6.00;;;;;9.35;100.00;97105.63;6185557;28;96405;-73
2023/11/25 09:17:45;;;;;;;;;5.00;5.00;;;;;9.36;100.00;97122.56;6203426;28;96756;-76
2023/11/25 09:20:50;;;;;;;;;10.00;9.00;;;;;9.44;100.00;97128.28;6184042;28;96859;-75
2023/11/25 09:23:54;;;;;;;;;6.00;5.75;;;;;9.47;100.00;97111.66;6201444;28;96288;-76
2023/11/25 09:26:58;;;;;;;;;10.00;10.00;;;;;9.60;100.00;97131.09;6185534;28;96616;-72
2023/11/25 09:30:01;;;;;;;;;8.75;7.00;;;;;9.61;100.00;97125.47;6181160;28;96257;-74
2023/11/25 09:33:04;;;;;;;;;8.75;8.75;;;;;9.54;100.00;97128.38;6189475;28;96373;-73
2023/11/25 09:36:09;;;;;;;;;9.00;8.60;;;;;9.40;100.00;97127.19;6191473;28;96666;-74
2023/11/25 09:39:14;;;;;;;;;9.00;8.00;;;;;9.32;100.00;97135.72;6190031;28;96303;-75
2023/11/25 09:42:18;;;;;;;;;6.20;6.20;;;;;9.22;100.00;97130.25;6211715;28;96695;-74
2023/11/25 09:45:28;;;;;;;;;5.40;5.00;;;;;9.66;100.00;97122.81;6206439;28;96625;-74
2023/11/25 09:48:33;;;;;;;;;7.40;7.00;;;;;9.81;100.00;97127.47;6197313;28;96821;-73
2023/11/25 09:51:37;;;;;;;;;6.80;6.80;;;;;9.71;100.00;97122.84;6208321;28;97121;-72
2023/11/25 09:55:09;;;;;;;;;9.00;8.00;;;;;9.64;100.00;97122.25;6206444;28;96282;-62
2023/11/25 09:58:17;;;;;;;;;7.00;6.00;;;;;8.66;100.00;97034.88;6179846;28;96120;-61
2023/11/25 10:01:23;;;;;;;;;9.00;8.00;;;;;7.97;100.00;97009.66;6189111;28;99932;-61
2023/11/25 10:04:28;;;;;;;;;10.00;10.00;;;;;8.78;100.00;97113.44;6207052;28;96890;-61
2023/11/25 10:07:32;;;;;;;;;10.60;9.00;;;;;8.93;100.00;97136.97;6214263;28;96423;-60
2023/11/25 10:10:36;;;;;;;;;12.60;12.00;;;;;8.67;100.00;97117.91;6188790;28;96374;-60
2023/11/25 10:13:42;;;;;;;;;17.40;15.00;;;;;8.84;100.00;97135.81;6206519;28;96832;-60
2023/11/25 10:16:46;;;;;;;;;11.00;10.00;;;;;9.86;100.00;97103.28;6193927;28;96367;-60
2023/11/25 10:20:09;;;;;;;;;9.60;9.60;;;;;10.60;100.00;97087.75;6187134;28;96829;-60
2023/11/25 10:23:21;;;;;;;;;8.00;7.00;;;;;10.71;98.75;97104.75;6180736;28;99279;-60
2023/11/25 10:26:26;;;;;;;;;8.00;7.80;;;;;10.94;97.58;97144.72;6198187;28;96284;-60
2023/11/25 10:29:32;;;;;;;;;14.00;12.00;;;;;10.09;100.00;97057.09;6172233;28;98431;-61
2023/11/25 10:32:39;;;;;;;;;8.40;8.00;;;;;9.77;100.00;97068.00;6191306;28;96296;-62
2023/11/25 10:35:51;;;;;;;;;11.80;10.00;;;;;9.73;100.00;97069.56;6191779;28;96598;-62
2023/11/25 10:38:56;;;;;;;;;7.50;7.00;;;;;10.37;98.44;97134.00;6194004;28;96544;-60
2023/11/25 10:42:07;;;;;;;;;8.00;8.00;;;;;11.07;97.72;97149.59;6208781;28;96418;-63
2023/11/25 10:45:18;;;;;;;;;6.00;5.80;;;;;10.53;91.98;97024.41;6170563;28;99627;-60
2023/11/25 10:48:23;;;;;;;;;6.00;6.00;;;;;10.99;89.45;97054.94;6189861;28;99782;-61
2023/11/25 10:51:30;;;;;;;;;6.25;6.25;;;;;10.84;90.17;97063.81;6189858;28;96508;-62
2023/11/25 10:54:39;;;;;;;;;10.75;8.75;;;;;9.97;93.03;96987.31;6181734;28;96902;-62
2023/11/25 10:57:42;;;;;;;;;11.00;9.00;;;;;10.00;94.84;97070.25;6215594;28;96398;-62
2023/11/25 11:00:46;;;;;;;;;7.00;6.00;;;;;10.24;97.43;97156.03;6203113;28;98285;-59
2023/11/25 11:03:59;;;;;;;;;11.40;9.00;;;;;9.89;99.78;97152.03;6212914;28;98235;-66
2023/11/25 11:07:04;;;;;;;;;9.25;9.25;;;;;9.60;99.91;97166.06;6210575;28;96458;-69
2023/11/25 11:10:14;;;;;;;;;8.40;8.40;;;;;9.51;100.00;97161.16;6213082;28;96359;-67
2023/11/25 11:13:24;;;;;;;;;7.50;7.00;;;;;9.29;100.00;97173.88;6213598;28;96541;-66
2023/11/25 11:16:36;;;;;;;;;7.00;7.00;;;;;9.33;100.00;97171.50;6213736;28;96625;-67
2023/11/25 11:19:41;;;;;;;;;10.50;9.50;;;;;9.00;100.00;97169.81;6202070;28;96305;-67
2023/11/25 11:22:45;;;;;;;;;8.00;8.00;;;;;8.87;100.00;97173.72;6177605;28;96674;-67
2023/11/25 11:26:02;;;;;;;;;12.00;11.60;;;;;8.73;100.00;97177.06;6190047;28;96825;-67
2023/11/25 11:29:16;;;;;;;;;12.60;12.40;;;;;8.92;100.00;97181.84;6167179;28;98842;-67
2023/11/25 11:32:21;;;;;;;;;9.00;8.00;;;;;9.00;100.00;97189.44;6185667;28;96630;-67
2023/11/25 11:35:37;;;;;;;;;10.00;10.00;;;;;8.90;100.00;97188.50;6195188;28;96625;-67
2023/11/25 11:38:44;;;;;;;;;11.50;11.25;;;;;8.92;100.00;97194.47;6204991;28;96249;-67
2023/11/25 11:41:48;;;;;;;;;12.00;11.00;;;;;8.75;100.00;97186.47;6172076;28;96691;-67
2023/11/25 11:45:11;;;;;;;;;13.00;13.00;;;;;8.61;100.00;97188.72;6191176;28;98452;-67
2023/11/25 11:48:15;;;;;;;;;20.50;19.00;;;;;8.73;100.00;97185.94;6196312;28;96284;-67
2023/11/25 11:51:20;;;;;;;;;14.60;14.00;;;;;9.30;100.00;97174.69;6202671;28;96423;-68
2023/11/25 11:54:24;;;;;;;;;14.20;14.20;;;;;10.69;100.00;97167.00;6193153;28;98760;-68
2023/11/25 11:57:29;;;;;;;;;12.80;12.00;;;;;11.91;100.00;97164.50;6197211;28;96853;-68
2023/11/25 12:00:36;;;;;;;;;11.00;10.67;;;;;12.93;98.59;97173.91;6178849;28;99640;-67
2023/11/25 12:03:39;;;;;;;;;12.00;12.00;;;;;13.98;89.69;97165.31;6172583;28;97045;-68
2023/11/25 12:06:43;;;;;;;;;14.40;13.00;;;;;14.91;82.26;97167.56;6198263;28;96303;-68
2023/11/25 12:09:47;;;;;;;;;14.00;13.00;;;;;14.98;72.64;97158.00;6197884;28;96772;-69
2023/11/25 12:12:52;;;;;;;;;13.40;10.00;;;;;14.45;75.18;97162.72;6184214;28;96658;-68
2023/11/25 12:15:59;;;;;;;;;5.60;5.00;;;;;13.54;71.71;97173.53;6181788;28;96850;-69
2023/11/25 12:19:04;;;;;;;;;9.00;9.00;;;;;12.70;77.14;97167.25;6179184;28;96339;-69
2023/11/25 12:22:09;;;;;;;;;9.60;9.60;;;;;12.29;82.20;97166.59;6199850;28;97150;-69
2023/11/25 12:25:14;;;;;;;;;12.75;11.75;;;;;11.89;86.25;97162.06;6197573;28;97032;-68
2023/11/25 12:28:18;;;;;;;;;8.00;7.60;;;;;11.46;86.45;97165.28;6198405;28;97076;-69
2023/11/25 12:31:21;;;;;;;;;12.00;12.00;;;;;11.04;89.89;97169.00;6189387;28;96831;-69
2023/11/25 12:34:24;;;;;;;;;9.33;9.33;;;;;10.61;91.73;97159.41;6189929;28;96454;-68
2023/11/25 12:37:27;;;;;;;;;9.75;9.25;;;;;10.24;93.80;97154.16;6174663;28;98446;-68
2023/11/25 12:40:31;;;;;;;;;8.00;7.25;;;;;10.02;96.29;97163.41;6191752;28;98516;-68
2023/11/25 12:43:36;;;;;;;;;8.75;8.00;;;;;9.70;98.73;97163.44;6209647;28;96276;-68
2023/11/25 12:46:40;;;;;;;;;9.80;8.40;;;;;9.52;100.00;97152.03;6210294;28;96921;-68
2023/11/25 12:49:44;;;;;;;;;11.60;11.60;;;;;9.39;100.00;97157.81;6191439;28;96656;-68
2023/11/25 12:52:52;;;;;;;;;13.00;12.00;;;;;9.25;100.00;97153.94;6174963;28;97186;-68
2023/11/25 12:55:57;;;;;;;;;14.00;13.40;;;;;9.24;100.00;97143.44;6159281;28;98457;-68
2023/11/25 12:59:02;;;;;;;;;18.00;16.00;;;;;9.38;100.00;97152.72;6207359;28;96984;-68
2023/11/25 13:02:06;;;;;;;;;10.60;10.00;;;;;9.45;100.00;97150.63;6203112;28;97107;-68
2023/11/25 13:05:11;;;;;;;;;12.60;12.00;;;;;9.45;100.00;97147.91;6184770;28;96825;-67
2023/11/25 13:08:27;;;;;;;;;13.00;12.00;;;;;9.87;100.00;97147.97;6204595;28;96743;-66
2023/11/25 13:11:31;;;;;;;;;6.00;6.00;;;;;10.09;100.00;97148.66;6211683;28;96586;-66
2023/11/25 13:14:36;;;;;;;;;11.00;9.20;;;;;10.25;100.00;97146.88;6194534;28;97170;-67
2023/11/25 13:17:40;;;;;;;;;8.00;8.00;;;;;10.40;97.43;97142.38;6215582;28;96970;-67
2023/11/25 13:20:43;;;;;;;;;8.00;8.00;;;;;10.34;97.28;97148.81;6206090;28;97314;-67
2023/11/25 13:23:46;;;;;;;;;10.00;10.00;;;;;10.24;99.06;97151.44;6215472;28;96404;-67
2023/11/25 13:26:49;;;;;;;;;12.00;11.00;;;;;10.06;99.08;97151.06;6215485;28;96875;-67
2023/11/25 13:29:54;;;;;;;;;7.50;7.50;;;;;9.71;98.45;97146.25;6213857;28;96546;-67
2023/11/25 13:32:57;;;;;;;;;9.00;8.00;;;;;9.57;99.66;97149.38;6193575;28;96344;-67
2023/11/25 13:36:00;;;;;;;;;6.00;5.00;;;;;9.09;100.00;97160.22;6179382;28;98402;-66
2023/11/25 13:39:04;;;;;;;;;7.40;7.00;;;;;8.82;100.00;97170.97;6183990;28;96703;-66
2023/11/25 13:42:07;;;;;;;;;7.00;7.00;;;;;8.59;100.00;97169.38;6198641;28;96270;-66
2023/11/25 13:45:12;;;;;;;;;5.00;5.00;;;;;8.64;100.00;97179.38;6195986;28;96606;-66
2023/11/25 13:48:17;;;;;;;;;8.00;8.00;;;;;8.60;100.00;97187.09;6175192;28;98456;-66
2023/11/25 13:51:20;;;;;;;;;8.50;8.50;;;;;8.46;100.00;97185.03;6182075;28;96858;-65
2023/11/25 13:54:25;;;;;;;;;7.00;7.00;;;;;8.28;100.00;97196.88;6198348;28;97692;-67
2023/11/25 13:57:28;;;;;;;;;10.20;9.60;;;;;8.13;100.00;97202.03;6185901;28;96804;-65
2023/11/25 14:00:34;;;;;;;;;10.00;9.75;;;;;8.07;100.00;97206.50;6193940;28;97386;-65
2023/11/25 14:03:37;;;;;;;;;9.60;9.00;;;;;8.02;100.00;97202.94;6214223;28;96614;-66
2023/11/25 14:06:40;;;;;;;;;8.60;8.00;;;;;7.92;100.00;97222.38;6212730;28;96447;-66
2023/11/25 14:09:43;;;;;;;;;12.00;10.00;;;;;7.84;100.00;97212.88;6165440;28;98546;-65
2023/11/25 14:12:46;;;;;;;;;10.40;10.40;;;;;7.91;100.00;97220.78;6164298;28;96776;-65
2023/11/25 14:15:51;;;;;;;;;9.00;9.00;;;;;7.81;100.00;97212.56;6166103;28;97157;-64
2023/11/25 14:18:55;;;;;;;;;10.00;10.00;;;;;7.91;100.00;97217.28;6206056;28;96465;-64
2023/11/25 14:21:58;;;;;;;;;11.00;10.00;;;;;7.91;100.00;97209.22;6195558;28;97810;-65
2023/11/25 14:25:01;;;;;;;;;9.00;9.00;;;;;7.87;100.00;97214.25;6194887;28;96590;-66
2023/11/25 14:28:05;;;;;;;;;9.00;8.60;;;;;7.75;100.00;97214.34;6211473;28;96454;-64